Time;durP1;ratioP1;P1;durP2;ratioP2;P2;SDS_P1;SDS_P2;PMS_P1;PMS_P2;Temp;Humidity;BMP_temperature;BMP_pressure;BME280_temperature;BME280_humidity;BME280_pressure;Samples;Min_cycle;Max_cycle;Signal;HPM_P1;HPM_P2
2022/05/11 00:01:16;;;;;;;20.30;11.87;;;;;;;;;;4942750;28;20283;-35
2022/05/11 00:03:42;;;;;;;18.57;11.53;;;;;;;;;;4948155;28;20526;-35
2022/05/11 00:06:09;;;;;;;21.63;11.63;;;;;;;;;;4944401;28;20230;-35
2022/05/11 00:08:35;;;;;;;17.83;11.53;;;;;;;;;;4941294;28;20194;-35
2022/05/11 00:11:02;;;;;;;15.73;11.10;;;;;;;;;;4942580;28;20179;-35
2022/05/11 00:13:28;;;;;;;14.73;10.70;;;;;;;;;;4944060;28;20309;-35
2022/05/11 00:15:55;;;;;;;12.97;10.40;;;;;;;;;;4941622;28;21219;-35
2022/05/11 00:18:21;;;;;;;13.73;10.10;;;;;;;;;;4943311;28;20617;-36
2022/05/11 00:20:47;;;;;;;16.23;10.20;;;;;;;;;;4942888;28;20180;-35
2022/05/11 00:23:13;;;;;;;12.77;10.37;;;;;;;;;;4943553;28;20186;-35
2022/05/11 00:25:39;;;;;;;16.47;10.13;;;;;;;;;;4938963;28;20842;-35
2022/05/11 00:28:05;;;;;;;15.70;10.20;;;;;;;;;;4941961;28;20175;-35
2022/05/11 00:30:32;;;;;;;13.53;10.50;;;;;;;;;;4943638;28;20689;-35
2022/05/11 00:32:59;;;;;;;15.53;11.07;;;;;;;;;;4943930;28;20421;-36
2022/05/11 00:35:26;;;;;;;17.10;11.03;;;;;;;;;;4945134;28;20686;-35
2022/05/11 00:37:52;;;;;;;17.27;10.97;;;;;;;;;;4950635;28;20178;-35
2022/05/11 00:40:19;;;;;;;15.83;10.27;;;;;;;;;;4947646;28;20209;-35
2022/05/11 00:42:45;;;;;;;16.87;10.70;;;;;;;;;;4936970;28;20449;-35
2022/05/11 00:45:11;;;;;;;17.13;11.13;;;;;;;;;;4943505;28;20788;-35
2022/05/11 00:47:40;;;;;;;16.53;11.23;;;;;;;;;;4945034;28;20487;-35
2022/05/11 00:50:12;;;;;;;17.20;11.47;;;;;;;;;;4945271;28;20585;-35
2022/05/11 00:52:43;;;;;;;15.83;10.97;;;;;;;;;;4938418;28;20172;-35
2022/05/11 00:55:13;;;;;;;15.77;11.30;;;;;;;;;;4946891;28;20378;-35
2022/05/11 00:57:46;;;;;;;20.37;13.57;;;;;;;;;;4940800;28;20708;-35
2022/05/11 01:00:12;;;;;;;18.00;12.50;;;;;;;;;;4941475;28;20183;-35
2022/05/11 01:02:40;;;;;;;21.70;13.60;;;;;;;;;;4945246;28;20784;-35
2022/05/11 01:05:07;;;;;;;24.20;16.90;;;;;;;;;;4941451;28;20191;-35
2022/05/11 01:07:34;;;;;;;23.87;16.10;;;;;;;;;;4922392;28;20489;-35
2022/05/11 01:10:00;;;;;;;25.90;17.30;;;;;;;;;;4941198;28;20175;-35
2022/05/11 01:12:29;;;;;;;31.23;19.10;;;;;;;;;;4945459;28;20616;-36
2022/05/11 01:15:00;;;;;;;29.60;20.00;;;;;;;;;;4938952;28;20513;-36
2022/05/11 01:17:26;;;;;;;22.03;17.83;;;;;;;;;;4943239;28;20175;-36
2022/05/11 01:19:53;;;;;;;27.10;20.17;;;;;;;;;;4943041;28;20609;-35
2022/05/11 01:22:41;;;;;;;23.00;18.33;;;;;;;;;;4938229;28;20181;-35
2022/05/11 01:25:08;;;;;;;33.70;21.10;;;;;;;;;;4937692;28;20750;-35
2022/05/11 01:27:40;;;;;;;28.13;21.73;;;;;;;;;;4941839;28;20176;-35
2022/05/11 01:30:24;;;;;;;33.40;22.93;;;;;;;;;;4940520;28;20960;-35
2022/05/11 01:32:51;;;;;;;29.23;20.63;;;;;;;;;;4942394;28;20189;-36
2022/05/11 01:35:20;;;;;;;28.43;20.07;;;;;;;;;;4943233;28;20179;-36
2022/05/11 01:37:53;;;;;;;27.87;20.87;;;;;;;;;;4947506;28;20294;-34
2022/05/11 01:40:19;;;;;;;31.17;20.83;;;;;;;;;;4940861;28;20855;-34
2022/05/11 01:42:45;;;;;;;26.77;18.67;;;;;;;;;;4940606;28;20187;-33
2022/05/11 01:45:11;;;;;;;28.60;19.13;;;;;;;;;;4943340;28;20194;-34
2022/05/11 01:47:37;;;;;;;26.97;18.97;;;;;;;;;;4940707;28;20186;-34
2022/05/11 01:50:03;;;;;;;23.53;16.90;;;;;;;;;;4942071;28;20285;-35
2022/05/11 01:52:29;;;;;;;24.27;16.60;;;;;;;;;;4939094;28;20182;-35
2022/05/11 01:54:55;;;;;;;28.33;17.27;;;;;;;;;;4946372;28;20190;-35
2022/05/11 01:57:21;;;;;;;20.43;16.10;;;;;;;;;;4942714;28;20424;-35
2022/05/11 01:59:47;;;;;;;19.67;15.10;;;;;;;;;;4943459;28;20221;-36
2022/05/11 02:02:14;;;;;;;18.97;14.40;;;;;;;;;;4939456;28;20183;-35
2022/05/11 02:10:09;;;;;;;18.63;11.60;;;;;;;;;;4941291;28;20182;-36
2022/05/11 02:12:36;;;;;;;16.67;12.43;;;;;;;;;;4940664;28;20262;-35
2022/05/11 02:15:02;;;;;;;16.93;11.87;;;;;;;;;;4944798;28;20180;-35
2022/05/11 02:17:28;;;;;;;19.37;12.40;;;;;;;;;;4940610;28;20726;-36
2022/05/11 02:19:54;;;;;;;14.57;11.10;;;;;;;;;;4943893;28;20255;-35
2022/05/11 02:22:20;;;;;;;16.90;11.73;;;;;;;;;;4940529;28;21052;-36
2022/05/11 02:24:47;;;;;;;19.10;12.27;;;;;;;;;;4939068;28;20195;-35
2022/05/11 02:27:13;;;;;;;16.37;12.60;;;;;;;;;;4938392;28;20175;-35
2022/05/11 02:29:39;;;;;;;19.73;12.60;;;;;;;;;;4941366;28;20175;-34
2022/05/11 02:32:06;;;;;;;13.70;11.83;;;;;;;;;;4940378;28;20262;-35
2022/05/11 02:37:17;;;;;;;14.87;10.97;;;;;;;;;;4940536;28;20241;-35
2022/05/11 02:39:43;;;;;;;13.80;10.27;;;;;;;;;;4939693;28;20630;-36
2022/05/11 02:42:09;;;;;;;15.97;10.90;;;;;;;;;;4939230;28;20277;-36
2022/05/11 02:44:35;;;;;;;15.27;9.83;;;;;;;;;;4941565;28;20578;-36
2022/05/11 02:47:01;;;;;;;13.40;9.57;;;;;;;;;;4939820;28;20202;-36
2022/05/11 02:49:27;;;;;;;14.03;10.20;;;;;;;;;;4939503;28;20434;-35
2022/05/11 02:51:53;;;;;;;13.40;10.27;;;;;;;;;;4937342;28;20171;-35
2022/05/11 02:54:20;;;;;;;13.40;10.57;;;;;;;;;;4940391;28;20191;-36
2022/05/11 02:56:46;;;;;;;17.37;10.47;;;;;;;;;;4937349;28;20178;-35
2022/05/11 02:59:15;;;;;;;17.20;11.03;;;;;;;;;;4937373;28;20208;-35
2022/05/11 03:01:41;;;;;;;14.87;11.67;;;;;;;;;;4944581;28;20178;-35
2022/05/11 03:04:07;;;;;;;15.43;11.80;;;;;;;;;;4939976;28;20781;-36
2022/05/11 03:06:33;;;;;;;16.73;11.27;;;;;;;;;;4942939;28;20265;-35
2022/05/11 03:08:59;;;;;;;16.83;11.90;;;;;;;;;;4940970;28;20650;-36
2022/05/11 03:11:26;;;;;;;14.43;10.93;;;;;;;;;;4940943;28;20237;-35
2022/05/11 03:13:52;;;;;;;17.83;11.43;;;;;;;;;;4936475;28;20768;-36
2022/05/11 03:16:18;;;;;;;16.03;12.13;;;;;;;;;;4939793;28;20500;-36
2022/05/11 03:18:44;;;;;;;14.50;11.83;;;;;;;;;;4941158;28;20179;-35
2022/05/11 03:21:11;;;;;;;19.80;13.03;;;;;;;;;;4941216;28;20733;-36
2022/05/11 03:23:37;;;;;;;15.90;12.00;;;;;;;;;;4941613;28;20190;-35
2022/05/11 03:26:03;;;;;;;17.20;13.13;;;;;;;;;;4936148;28;20313;-35
2022/05/11 03:28:29;;;;;;;15.10;12.20;;;;;;;;;;4938154;28;20194;-35
2022/05/11 03:30:55;;;;;;;18.13;12.80;;;;;;;;;;4944039;28;21143;-35
2022/05/11 03:36:07;;;;;;;18.97;13.00;;;;;;;;;;4942896;28;20202;-35
2022/05/11 03:38:33;;;;;;;14.10;11.43;;;;;;;;;;4941973;28;20190;-34
2022/05/11 03:40:59;;;;;;;16.00;12.23;;;;;;;;;;4940885;28;20175;-36
2022/05/11 03:43:25;;;;;;;16.83;12.03;;;;;;;;;;4940784;28;20296;-35
2022/05/11 03:45:52;;;;;;;20.20;13.10;;;;;;;;;;4940283;28;20194;-36
2022/05/11 03:48:18;;;;;;;19.63;13.50;;;;;;;;;;4940640;28;20566;-36
2022/05/11 03:50:44;;;;;;;18.37;13.87;;;;;;;;;;4944010;28;20183;-36
2022/05/11 03:53:10;;;;;;;17.30;13.23;;;;;;;;;;4936108;28;20729;-36
2022/05/11 03:55:36;;;;;;;16.03;12.67;;;;;;;;;;4936699;28;20179;-36
2022/05/11 03:58:02;;;;;;;20.07;14.77;;;;;;;;;;4940640;28;20191;-35
2022/05/11 04:00:28;;;;;;;22.30;17.87;;;;;;;;;;4938350;28;20624;-36
2022/05/11 04:02:56;;;;;;;25.50;17.80;;;;;;;;;;4939930;28;20194;-35
2022/05/11 04:05:22;;;;;;;31.83;20.90;;;;;;;;;;4943824;28;20395;-36
2022/05/11 04:07:49;;;;;;;22.50;15.63;;;;;;;;;;4941652;28;20208;-35
2022/05/11 04:10:16;;;;;;;21.43;17.23;;;;;;;;;;4939799;28;20553;-35
2022/05/11 04:12:42;;;;;;;26.37;18.30;;;;;;;;;;4941173;28;20709;-35
2022/05/11 04:15:09;;;;;;;28.30;19.87;;;;;;;;;;4935740;28;20221;-35
2022/05/11 04:17:35;;;;;;;29.87;19.33;;;;;;;;;;4942657;28;20183;-35
2022/05/11 04:20:01;;;;;;;23.07;18.17;;;;;;;;;;4940621;28;20298;-35
2022/05/11 04:22:28;;;;;;;20.43;16.33;;;;;;;;;;4931752;28;20195;-36
2022/05/11 04:24:54;;;;;;;23.87;17.30;;;;;;;;;;4939749;28;20595;-35
2022/05/11 04:27:20;;;;;;;23.03;17.67;;;;;;;;;;4941962;28;20238;-35
2022/05/11 04:29:46;;;;;;;23.90;17.60;;;;;;;;;;4940085;28;20178;-35
2022/05/11 04:32:14;;;;;;;25.57;16.47;;;;;;;;;;4939497;28;20702;-35
2022/05/11 04:34:41;;;;;;;22.70;16.80;;;;;;;;;;4940528;28;20218;-36
2022/05/11 04:37:07;;;;;;;23.30;16.37;;;;;;;;;;4937575;28;20732;-36
2022/05/11 04:39:34;;;;;;;25.40;16.90;;;;;;;;;;4940143;28;20194;-36
2022/05/11 04:42:00;;;;;;;31.60;18.93;;;;;;;;;;4946041;28;20809;-36
2022/05/11 04:44:26;;;;;;;23.17;18.50;;;;;;;;;;4942977;28;20194;-36
2022/05/11 04:46:52;;;;;;;28.57;19.00;;;;;;;;;;4945123;28;20627;-36
2022/05/11 04:49:23;;;;;;;27.00;19.20;;;;;;;;;;4942905;28;20854;-35
2022/05/11 04:51:51;;;;;;;26.60;17.90;;;;;;;;;;4943610;28;20634;-35
2022/05/11 04:54:17;;;;;;;27.90;18.90;;;;;;;;;;4943080;28;20674;-36
2022/05/11 04:56:44;;;;;;;27.80;18.73;;;;;;;;;;4937810;28;20445;-36
2022/05/11 04:59:12;;;;;;;30.43;19.40;;;;;;;;;;4944741;28;20523;-35
2022/05/11 05:01:38;;;;;;;25.27;17.63;;;;;;;;;;4938586;28;20174;-35
2022/05/11 05:04:04;;;;;;;25.30;18.63;;;;;;;;;;4942977;28;20187;-36
2022/05/11 05:06:34;;;;;;;27.10;19.37;;;;;;;;;;4941103;28;20207;-35
2022/05/11 05:09:00;;;;;;;25.13;17.60;;;;;;;;;;4941675;28;20290;-35
2022/05/11 05:11:27;;;;;;;25.90;18.90;;;;;;;;;;4945982;28;20175;-35
2022/05/11 05:13:53;;;;;;;25.70;18.00;;;;;;;;;;4944229;28;20186;-35
2022/05/11 05:16:19;;;;;;;28.57;19.40;;;;;;;;;;4941890;28;20183;-36
2022/05/11 05:18:45;;;;;;;28.70;20.47;;;;;;;;;;4942736;28;20584;-35
2022/05/11 05:21:11;;;;;;;23.07;18.43;;;;;;;;;;4934426;28;20178;-36
2022/05/11 05:23:37;;;;;;;24.80;18.40;;;;;;;;;;4946733;28;20257;-35
2022/05/11 05:26:03;;;;;;;27.23;19.33;;;;;;;;;;4943117;28;20194;-36
2022/05/11 05:31:17;;;;;;;27.77;19.83;;;;;;;;;;4946934;28;20182;-36
2022/05/11 05:33:43;;;;;;;27.37;18.90;;;;;;;;;;4946556;28;20174;-35
2022/05/11 05:36:10;;;;;;;29.63;20.23;;;;;;;;;;4936442;28;21009;-36
2022/05/11 05:38:38;;;;;;;29.20;19.80;;;;;;;;;;4921974;28;20182;-36
2022/05/11 05:41:08;;;;;;;27.13;19.03;;;;;;;;;;4919120;28;20226;-36
2022/05/11 05:43:34;;;;;;;27.43;20.80;;;;;;;;;;4941726;28;20609;-36
2022/05/11 05:46:00;;;;;;;30.13;21.40;;;;;;;;;;4945173;28;20248;-36
2022/05/11 05:48:27;;;;;;;28.57;20.90;;;;;;;;;;4945616;28;20190;-36
2022/05/11 05:50:53;;;;;;;32.70;22.07;;;;;;;;;;4943885;28;20294;-36
2022/05/11 05:53:20;;;;;;;38.50;23.03;;;;;;;;;;4943957;28;20182;-36
2022/05/11 05:55:49;;;;;;;30.50;21.83;;;;;;;;;;4945888;28;20638;-37
2022/05/11 05:58:18;;;;;;;31.07;21.23;;;;;;;;;;4942104;28;20174;-37
2022/05/11 06:00:45;;;;;;;27.40;19.87;;;;;;;;;;4939924;28;20625;-36
2022/05/11 06:03:14;;;;;;;26.63;19.70;;;;;;;;;;4943023;28;20738;-36
2022/05/11 06:05:40;;;;;;;32.43;19.57;;;;;;;;;;4944821;28;20202;-37
2022/05/11 06:08:08;;;;;;;35.50;21.27;;;;;;;;;;4946358;28;20174;-37
2022/05/11 06:10:36;;;;;;;28.60;19.77;;;;;;;;;;4943245;28;20255;-36
2022/05/11 06:13:02;;;;;;;29.07;20.60;;;;;;;;;;4945040;28;20187;-36
2022/05/11 06:15:29;;;;;;;33.07;21.97;;;;;;;;;;4946721;28;20305;-37
2022/05/11 06:17:55;;;;;;;26.00;19.83;;;;;;;;;;4942352;28;20935;-37
2022/05/11 06:20:21;;;;;;;29.40;22.37;;;;;;;;;;4939615;28;20213;-37
2022/05/11 06:22:47;;;;;;;33.43;21.67;;;;;;;;;;4944610;28;20182;-37
2022/05/11 06:25:13;;;;;;;33.30;21.43;;;;;;;;;;4944722;28;20214;-36
2022/05/11 06:27:39;;;;;;;30.20;21.07;;;;;;;;;;4939333;28;20194;-36
2022/05/11 06:30:06;;;;;;;30.27;21.23;;;;;;;;;;4939362;28;20170;-37
2022/05/11 06:32:32;;;;;;;32.07;20.63;;;;;;;;;;4940175;28;20632;-37
2022/05/11 06:34:58;;;;;;;25.73;19.10;;;;;;;;;;4941951;28;20826;-37
2022/05/11 06:37:25;;;;;;;28.37;19.87;;;;;;;;;;4942862;28;21183;-36
2022/05/11 06:39:51;;;;;;;30.90;19.07;;;;;;;;;;4946661;28;20630;-37
2022/05/11 06:42:17;;;;;;;24.33;19.00;;;;;;;;;;4946571;28;20195;-36
2022/05/11 06:44:43;;;;;;;23.43;17.57;;;;;;;;;;4939250;28;20364;-37
2022/05/11 06:47:10;;;;;;;22.10;17.47;;;;;;;;;;4942364;28;20178;-37
2022/05/11 06:49:36;;;;;;;24.63;16.87;;;;;;;;;;4944358;28;20263;-36
2022/05/11 06:52:02;;;;;;;23.03;15.97;;;;;;;;;;4943773;28;20182;-36
2022/05/11 06:59:58;;;;;;;24.07;15.00;;;;;;;;;;4944449;28;20205;-37
2022/05/11 07:02:25;;;;;;;22.70;15.23;;;;;;;;;;4941424;28;20183;-36
2022/05/11 07:04:51;;;;;;;20.30;13.90;;;;;;;;;;4941093;28;20662;-37
2022/05/11 07:07:18;;;;;;;20.13;13.63;;;;;;;;;;4945570;28;20198;-36
2022/05/11 07:09:44;;;;;;;20.47;13.13;;;;;;;;;;4945433;28;20643;-37
2022/05/11 07:12:32;;;;;;;21.77;13.70;;;;;;;;;;4940562;28;20257;-36
2022/05/11 07:14:59;;;;;;;21.23;14.87;;;;;;;;;;4938591;28;20512;-36
2022/05/11 07:17:38;;;;;;;24.00;14.67;;;;;;;;;;4939323;28;20198;-37
2022/05/11 07:20:12;;;;;;;23.50;15.37;;;;;;;;;;4943528;28;20174;-36
2022/05/11 07:22:38;;;;;;;27.30;16.63;;;;;;;;;;4944585;28;20181;-36
2022/05/11 07:25:05;;;;;;;26.60;16.50;;;;;;;;;;4940842;28;20762;-37
2022/05/11 07:27:31;;;;;;;27.57;17.63;;;;;;;;;;4941079;28;20974;-37
2022/05/11 07:29:58;;;;;;;22.07;15.77;;;;;;;;;;4940573;28;20584;-37
2022/05/11 07:32:25;;;;;;;29.73;16.63;;;;;;;;;;4924446;28;20178;-37
2022/05/11 07:34:52;;;;;;;22.70;17.03;;;;;;;;;;4945563;28;20297;-37
2022/05/11 07:37:18;;;;;;;22.60;17.33;;;;;;;;;;4942665;28;20178;-37
2022/05/11 07:39:44;;;;;;;29.63;16.60;;;;;;;;;;4947257;28;20221;-34
2022/05/11 07:42:10;;;;;;;24.57;15.27;;;;;;;;;;4945275;28;20860;-33
2022/05/11 07:44:36;;;;;;;21.67;16.83;;;;;;;;;;4941882;28;20190;-34
2022/05/11 07:47:03;;;;;;;24.33;15.60;;;;;;;;;;4944282;28;20190;-34
2022/05/11 07:49:29;;;;;;;21.13;17.23;;;;;;;;;;4945905;28;20657;-34
2022/05/11 07:51:55;;;;;;;21.87;15.80;;;;;;;;;;4941896;28;21014;-34
2022/05/11 07:54:22;;;;;;;24.30;17.30;;;;;;;;;;4928505;28;20237;-34
2022/05/11 08:02:18;;;;;;;22.07;16.93;;;;;;;;;;4943759;28;20226;-37
2022/05/11 08:04:45;;;;;;;23.83;15.70;;;;;;;;;;4944081;28;20187;-34
2022/05/11 08:07:13;;;;;;;21.13;15.10;;;;;;;;;;4941831;28;20186;-34
2022/05/11 08:09:39;;;;;;;19.30;13.77;;;;;;;;;;4946169;28;20707;-34
2022/05/11 08:12:05;;;;;;;16.97;12.67;;;;;;;;;;4946977;28;20186;-34
2022/05/11 08:14:31;;;;;;;19.17;12.97;;;;;;;;;;4943972;28;20741;-34
2022/05/11 08:16:58;;;;;;;16.73;11.57;;;;;;;;;;4944612;28;20671;-34
2022/05/11 08:19:25;;;;;;;14.37;11.07;;;;;;;;;;4944992;28;20230;-34
2022/05/11 08:21:52;;;;;;;17.30;11.10;;;;;;;;;;4943193;28;20185;-35
2022/05/11 08:24:19;;;;;;;17.90;10.50;;;;;;;;;;4948366;28;20697;-35
2022/05/11 08:26:51;;;;;;;18.33;10.93;;;;;;;;;;4944651;28;20215;-35
2022/05/11 08:34:48;;;;;;;14.30;9.33;;;;;;;;;;4946860;28;20202;-34
2022/05/11 08:37:15;;;;;;;14.87;9.63;;;;;;;;;;4944390;28;20179;-35
2022/05/11 08:39:41;;;;;;;17.83;10.97;;;;;;;;;;4927600;28;20599;-35
2022/05/11 08:42:08;;;;;;;11.03;8.43;;;;;;;;;;4944988;28;20959;-35
2022/05/11 08:44:36;;;;;;;17.70;9.57;;;;;;;;;;4949502;28;20543;-36
2022/05/11 08:47:06;;;;;;;14.70;9.53;;;;;;;;;;4945152;28;20251;-36
2022/05/11 08:49:35;;;;;;;16.47;9.30;;;;;;;;;;4944618;28;20577;-35
2022/05/11 08:52:04;;;;;;;15.47;9.13;;;;;;;;;;4947305;28;20225;-36
2022/05/11 08:54:48;;;;;;;12.60;8.77;;;;;;;;;;4950342;28;20509;-35
2022/05/11 08:57:26;;;;;;;13.87;8.70;;;;;;;;;;4949655;28;20179;-35
2022/05/11 08:59:54;;;;;;;14.83;9.30;;;;;;;;;;4944927;28;20260;-36
2022/05/11 09:02:23;;;;;;;12.90;8.00;;;;;;;;;;4947006;28;20179;-36
2022/05/11 09:04:52;;;;;;;15.53;8.20;;;;;;;;;;4945801;28;20497;-35
2022/05/11 09:07:18;;;;;;;14.53;8.17;;;;;;;;;;4944823;28;20351;-36
2022/05/11 09:09:44;;;;;;;11.33;7.77;;;;;;;;;;4948812;28;20190;-36
2022/05/11 09:12:11;;;;;;;12.17;7.07;;;;;;;;;;4946542;28;20297;-36
2022/05/11 09:14:37;;;;;;;12.87;7.70;;;;;;;;;;4947033;28;21013;-36
2022/05/11 09:17:04;;;;;;;11.33;7.03;;;;;;;;;;4948905;28;20185;-36
2022/05/11 09:19:32;;;;;;;12.83;7.83;;;;;;;;;;4951039;28;20257;-36
2022/05/11 09:22:07;;;;;;;9.80;7.03;;;;;;;;;;4946466;28;20642;-36
2022/05/11 09:24:37;;;;;;;14.73;8.23;;;;;;;;;;4948020;28;20213;-36
2022/05/11 09:27:11;;;;;;;13.77;8.73;;;;;;;;;;4948861;28;20250;-36
2022/05/11 09:29:39;;;;;;;15.20;8.03;;;;;;;;;;4945835;28;20172;-36
2022/05/11 09:32:20;;;;;;;14.50;8.77;;;;;;;;;;4943816;28;20539;-36
2022/05/11 09:34:46;;;;;;;11.77;7.50;;;;;;;;;;4948935;28;20982;-36
2022/05/11 09:37:31;;;;;;;12.83;8.93;;;;;;;;;;4949392;28;20179;-36
2022/05/11 09:40:07;;;;;;;12.80;8.23;;;;;;;;;;4945827;28;20711;-36
2022/05/11 09:42:33;;;;;;;15.53;7.93;;;;;;;;;;4945766;28;20596;-36
2022/05/11 09:45:00;;;;;;;15.37;9.37;;;;;;;;;;4948406;28;20214;-36
2022/05/11 09:47:31;;;;;;;13.17;8.70;;;;;;;;;;4945488;28;20461;-36
2022/05/11 09:50:16;;;;;;;15.20;9.70;;;;;;;;;;4945383;28;20610;-35
2022/05/11 09:52:44;;;;;;;12.10;8.80;;;;;;;;;;4947078;28;20294;-35
2022/05/11 09:55:18;;;;;;;11.37;7.40;;;;;;;;;;4940039;28;20178;-35
2022/05/11 09:57:53;;;;;;;12.90;7.53;;;;;;;;;;4936509;28;20254;-36
2022/05/11 10:00:26;;;;;;;13.20;8.70;;;;;;;;;;4948246;28;20182;-36
2022/05/11 10:02:56;;;;;;;12.73;7.30;;;;;;;;;;4948073;28;20187;-35
2022/05/11 10:05:27;;;;;;;17.07;8.27;;;;;;;;;;4944009;28;20198;-35
2022/05/11 10:07:56;;;;;;;16.03;7.77;;;;;;;;;;4929172;28;20742;-35
2022/05/11 10:10:27;;;;;;;16.47;8.17;;;;;;;;;;4921421;28;20179;-35
2022/05/11 10:12:56;;;;;;;13.80;8.17;;;;;;;;;;4943483;28;20171;-35
2022/05/11 10:23:47;;;;;;;14.27;8.30;;;;;;;;;;4945228;28;20191;-35
2022/05/11 10:26:18;;;;;;;11.47;8.30;;;;;;;;;;4947492;28;20274;-34
2022/05/11 10:29:12;;;;;;;10.70;8.30;;;;;;;;;;4941794;28;20737;-34
2022/05/11 10:32:08;;;;;;;10.73;7.50;;;;;;;;;;4949849;28;20187;-35
2022/05/11 10:34:38;;;;;;;10.60;7.67;;;;;;;;;;4875971;28;20745;-35
2022/05/11 10:37:15;;;;;;;15.70;7.70;;;;;;;;;;4945412;28;20171;-35
2022/05/11 10:39:41;;;;;;;14.70;8.17;;;;;;;;;;4947176;28;20185;-35
2022/05/11 10:42:12;;;;;;;12.00;7.60;;;;;;;;;;4947734;28;20706;-35
2022/05/11 10:44:44;;;;;;;12.87;7.80;;;;;;;;;;4943312;28;20188;-34
2022/05/11 10:47:16;;;;;;;13.47;7.70;;;;;;;;;;4945463;28;20814;-35
2022/05/11 10:49:49;;;;;;;17.27;8.77;;;;;;;;;;4946279;28;20181;-35
2022/05/11 10:52:24;;;;;;;13.53;8.87;;;;;;;;;;4944964;28;20439;-35
2022/05/11 10:54:51;;;;;;;12.27;7.73;;;;;;;;;;4947897;28;20182;-34
2022/05/11 10:57:17;;;;;;;13.00;8.30;;;;;;;;;;4946481;28;20199;-35
2022/05/11 10:59:46;;;;;;;12.77;8.53;;;;;;;;;;4943719;28;20254;-35
2022/05/11 11:02:13;;;;;;;11.33;7.13;;;;;;;;;;4946027;28;20182;-35
2022/05/11 11:04:39;;;;;;;11.83;8.20;;;;;;;;;;4946710;28;20183;-35
2022/05/11 11:07:13;;;;;;;14.63;8.00;;;;;;;;;;4945564;28;20408;-36
2022/05/11 11:09:57;;;;;;;11.10;6.53;;;;;;;;;;4944595;28;20894;-35
2022/05/11 11:12:27;;;;;;;14.60;8.60;;;;;;;;;;4949439;28;20183;-35
2022/05/11 11:14:55;;;;;;;13.60;7.53;;;;;;;;;;4949995;28;20287;-35
2022/05/11 11:17:22;;;;;;;12.93;8.83;;;;;;;;;;4944086;28;20188;-35
2022/05/11 11:19:59;;;;;;;13.87;8.50;;;;;;;;;;4940870;28;20449;-35
2022/05/11 11:22:25;;;;;;;13.00;8.20;;;;;;;;;;4944407;28;20205;-35
2022/05/11 11:25:10;;;;;;;14.37;8.50;;;;;;;;;;4945208;28;20703;-35
2022/05/11 11:27:56;;;;;;;12.77;7.50;;;;;;;;;;4942306;28;20624;-34
2022/05/11 11:30:23;;;;;;;16.83;8.30;;;;;;;;;;4944361;28;20211;-35
2022/05/11 11:33:12;;;;;;;12.17;8.30;;;;;;;;;;4944355;28;20232;-35
2022/05/11 11:35:43;;;;;;;12.47;8.33;;;;;;;;;;4931066;28;20813;-35
2022/05/11 11:38:23;;;;;;;11.60;8.43;;;;;;;;;;4943786;28;21104;-35
2022/05/11 11:41:10;;;;;;;16.77;8.67;;;;;;;;;;4944064;28;20210;-35
2022/05/11 11:43:42;;;;;;;11.63;8.07;;;;;;;;;;4916948;28;20249;-35
2022/05/11 11:46:08;;;;;;;12.03;7.37;;;;;;;;;;4943700;28;20633;-35
2022/05/11 11:48:35;;;;;;;13.93;8.43;;;;;;;;;;4947979;28;21068;-35
2022/05/11 11:51:03;;;;;;;10.13;7.83;;;;;;;;;;4946257;28;20291;-35
2022/05/11 11:53:42;;;;;;;12.67;7.70;;;;;;;;;;4948628;28;20221;-35
2022/05/11 11:56:24;;;;;;;12.23;6.83;;;;;;;;;;4950932;28;20533;-35
2022/05/11 11:59:03;;;;;;;11.97;7.27;;;;;;;;;;4948571;28;20298;-35
2022/05/11 12:01:31;;;;;;;8.83;5.83;;;;;;;;;;4947193;28;20776;-35
2022/05/11 12:04:00;;;;;;;13.63;6.30;;;;;;;;;;4949816;28;20192;-35
2022/05/11 12:15:03;;;;;;;9.20;5.13;;;;;;;;;;4951138;28;20249;-35
2022/05/11 12:17:33;;;;;;;9.07;5.70;;;;;;;;;;4947092;28;20515;-35
2022/05/11 12:20:05;;;;;;;11.03;6.10;;;;;;;;;;4946122;28;20187;-35
2022/05/11 12:22:32;;;;;;;8.27;5.23;;;;;;;;;;4948260;28;20187;-35
2022/05/11 12:25:09;;;;;;;8.87;5.50;;;;;;;;;;4947451;28;20292;-35
2022/05/11 12:27:36;;;;;;;12.90;5.30;;;;;;;;;;4948627;28;20533;-35
2022/05/11 12:30:06;;;;;;;11.57;5.43;;;;;;;;;;4946952;28;20182;-35
2022/05/11 12:32:33;;;;;;;12.13;5.13;;;;;;;;;;4950785;28;20182;-35
2022/05/11 12:35:29;;;;;;;11.57;5.37;;;;;;;;;;4951584;28;20183;-36
2022/05/11 12:37:57;;;;;;;9.27;5.43;;;;;;;;;;4934502;28;20199;-36
2022/05/11 12:40:23;;;;;;;9.47;5.37;;;;;;;;;;4945141;28;20175;-35
2022/05/11 12:42:51;;;;;;;9.83;5.70;;;;;;;;;;4948911;28;20194;-36
2022/05/11 12:45:20;;;;;;;10.23;6.10;;;;;;;;;;4946220;28;20210;-35
2022/05/11 12:47:49;;;;;;;11.90;5.30;;;;;;;;;;4945387;28;20179;-36
2022/05/11 12:50:20;;;;;;;11.63;6.17;;;;;;;;;;4947180;28;20183;-36
2022/05/11 12:52:46;;;;;;;10.43;5.57;;;;;;;;;;4947926;28;20214;-35
2022/05/11 12:55:12;;;;;;;8.53;5.00;;;;;;;;;;4950545;28;20183;-36
2022/05/11 12:57:44;;;;;;;8.17;5.03;;;;;;;;;;4948179;28;20607;-36
2022/05/11 13:00:15;;;;;;;9.97;5.23;;;;;;;;;;4943651;28;20890;-35
2022/05/11 13:02:44;;;;;;;8.90;4.80;;;;;;;;;;4945102;28;20791;-36
2022/05/11 13:05:14;;;;;;;12.00;5.10;;;;;;;;;;4948670;28;20224;-35
2022/05/11 13:07:50;;;;;;;9.13;5.00;;;;;;;;;;4950376;28;20179;-35
2022/05/11 13:10:22;;;;;;;8.57;4.80;;;;;;;;;;4946587;28;20178;-35
2022/05/11 13:12:53;;;;;;;10.57;4.67;;;;;;;;;;4946270;28;20253;-35
2022/05/11 13:15:30;;;;;;;7.33;4.37;;;;;;;;;;4949613;28;20198;-36
2022/05/11 13:17:56;;;;;;;9.37;4.37;;;;;;;;;;4944671;28;20636;-36
2022/05/11 13:20:23;;;;;;;9.60;4.30;;;;;;;;;;4946274;28;20179;-35
2022/05/11 13:22:53;;;;;;;8.10;4.27;;;;;;;;;;4948150;28;20191;-35
2022/05/11 13:25:40;;;;;;;8.37;4.77;;;;;;;;;;4949452;28;20202;-35
2022/05/11 13:28:22;;;;;;;7.30;4.27;;;;;;;;;;4944673;28;20485;-36
2022/05/11 13:30:48;;;;;;;7.93;3.77;;;;;;;;;;4945840;28;20186;-36
2022/05/11 13:33:29;;;;;;;5.53;3.67;;;;;;;;;;4948285;28;20297;-36
2022/05/11 13:36:09;;;;;;;5.87;3.93;;;;;;;;;;4943245;28;20182;-36
2022/05/11 13:38:35;;;;;;;7.13;4.20;;;;;;;;;;4947602;28;20186;-35
2022/05/11 13:41:03;;;;;;;9.40;4.20;;;;;;;;;;4947957;28;21027;-35
2022/05/11 13:43:31;;;;;;;5.90;3.60;;;;;;;;;;4945160;28;20206;-35
2022/05/11 13:46:03;;;;;;;5.20;3.73;;;;;;;;;;4944721;28;20301;-36
2022/05/11 13:48:31;;;;;;;8.80;3.70;;;;;;;;;;4943909;28;20183;-35
2022/05/11 13:51:09;;;;;;;8.30;3.80;;;;;;;;;;4942316;28;20414;-35
2022/05/11 13:53:35;;;;;;;7.73;4.00;;;;;;;;;;4941033;28;20266;-36
2022/05/11 13:56:04;;;;;;;8.73;3.90;;;;;;;;;;4939803;28;21514;-35
2022/05/11 13:58:34;;;;;;;6.10;3.77;;;;;;;;;;4941341;28;20618;-36
2022/05/11 14:01:04;;;;;;;6.97;3.60;;;;;;;;;;4938508;28;20183;-35
2022/05/11 14:03:33;;;;;;;5.87;3.70;;;;;;;;;;4933438;28;20756;-35
2022/05/11 14:06:00;;;;;;;5.40;3.47;;;;;;;;;;4939404;28;20249;-36
2022/05/11 14:08:26;;;;;;;7.80;3.67;;;;;;;;;;4940873;28;20190;-36
2022/05/11 14:10:53;;;;;;;7.50;4.07;;;;;;;;;;4942519;28;20183;-36
2022/05/11 14:13:19;;;;;;;5.00;3.57;;;;;;;;;;4947339;28;20263;-36
2022/05/11 14:15:45;;;;;;;4.30;3.30;;;;;;;;;;4946207;28;20245;-36
2022/05/11 14:18:12;;;;;;;8.43;3.80;;;;;;;;;;4944852;28;20180;-35
2022/05/11 14:20:39;;;;;;;8.23;3.63;;;;;;;;;;4944676;28;21157;-36
2022/05/11 14:23:06;;;;;;;5.83;3.23;;;;;;;;;;4948638;28;20188;-36
2022/05/11 14:25:33;;;;;;;7.80;3.70;;;;;;;;;;4948197;28;20208;-36
2022/05/11 14:27:59;;;;;;;10.53;4.30;;;;;;;;;;4942389;28;20177;-36
2022/05/11 14:30:25;;;;;;;6.60;3.57;;;;;;;;;;4943814;28;20215;-35
2022/05/11 14:32:51;;;;;;;5.33;3.20;;;;;;;;;;4948572;28;20892;-35
2022/05/11 14:35:21;;;;;;;6.63;3.30;;;;;;;;;;4947356;28;20182;-35
2022/05/11 14:37:48;;;;;;;6.57;2.87;;;;;;;;;;4944997;28;20190;-35
2022/05/11 14:40:16;;;;;;;9.10;3.60;;;;;;;;;;4944152;28;20192;-35
2022/05/11 14:42:42;;;;;;;8.00;3.40;;;;;;;;;;4948156;28;20304;-35
2022/05/11 14:45:09;;;;;;;11.27;3.63;;;;;;;;;;4945193;28;20196;-35
2022/05/11 14:47:36;;;;;;;5.53;3.53;;;;;;;;;;4949761;28;20185;-36
2022/05/11 14:50:03;;;;;;;5.70;3.60;;;;;;;;;;4946562;28;20816;-35
2022/05/11 14:52:29;;;;;;;7.20;3.30;;;;;;;;;;4946633;28;20849;-35
2022/05/11 14:54:55;;;;;;;6.17;3.30;;;;;;;;;;4936725;28;20190;-36
2022/05/11 15:02:53;;;;;;;6.43;3.33;;;;;;;;;;4942104;28;20263;-36
2022/05/11 15:05:19;;;;;;;7.03;3.77;;;;;;;;;;4943288;28;20985;-35
2022/05/11 15:07:47;;;;;;;8.00;4.10;;;;;;;;;;4941108;28;20180;-35
2022/05/11 15:10:14;;;;;;;7.10;3.23;;;;;;;;;;4943206;28;20185;-35
2022/05/11 15:15:25;;;;;;;4.60;3.27;;;;;;;;;;4943640;28;20871;-35
2022/05/11 15:17:51;;;;;;;3.80;3.20;;;;;;;;;;4920050;28;20883;-36
2022/05/11 15:20:18;;;;;;;7.70;3.70;;;;;;;;;;4941958;28;20634;-35
2022/05/11 15:22:44;;;;;;;5.80;3.70;;;;;;;;;;4944234;28;20200;-35
2022/05/11 15:25:11;;;;;;;8.10;3.43;;;;;;;;;;4934694;28;20631;-35
2022/05/11 15:27:38;;;;;;;8.70;3.73;;;;;;;;;;4935871;28;20257;-35
2022/05/11 15:30:05;;;;;;;7.80;3.83;;;;;;;;;;4939924;28;20986;-35